Time;durP1;ratioP1;P1;durP2;ratioP2;P2;SDS_P1;SDS_P2;PMS_P1;PMS_P2;Temp;Humidity;BMP_temperature;BMP_pressure;BME280_temperature;BME280_humidity;BME280_pressure;Samples;Min_cycle;Max_cycle;Signal;HPM_P1;HPM_P2
2024/01/08 00:00:44;;;;;;;3.08;2.50;;;;;;;2.06;88.33;98311.56;4884329;29;20373;-85
2024/01/08 00:03:54;;;;;;;3.85;2.30;;;;;;;2.01;88.40;98309.56;4897436;29;20071;-87
2024/01/08 00:06:54;;;;;;;1.77;1.35;;;;;;;2.02;88.68;98321.66;4888786;29;20071;-84
2024/01/08 00:09:41;;;;;;;1.83;1.33;;;;;;;2.01;89.07;98327.09;4889357;29;20079;-84
2024/01/08 00:12:28;;;;;;;2.53;1.88;;;;;;;2.02;88.65;98339.19;4889019;29;20047;-84
2024/01/08 00:15:20;;;;;;;2.10;1.60;;;;;;;1.94;88.49;98332.28;4889732;29;20385;-84
2024/01/08 00:18:14;;;;;;;3.13;1.60;;;;;;;1.94;89.14;98352.44;4901704;29;20504;-84
2024/01/08 00:21:02;;;;;;;1.75;1.60;;;;;;;1.85;89.23;98352.63;4887785;29;20122;-82
2024/01/08 00:23:52;;;;;;;1.77;1.40;;;;;;;1.87;90.03;98359.47;4888179;29;20075;-83
2024/01/08 00:26:46;;;;;;;3.38;2.50;;;;;;;1.83;89.58;98365.13;4887685;29;20054;-84
2024/01/08 00:29:33;;;;;;;4.70;3.00;;;;;;;1.84;89.68;98373.78;4888548;29;20034;-84
2024/01/08 00:32:23;;;;;;;2.92;1.98;;;;;;;1.79;89.36;98361.28;4888618;29;20500;-84
2024/01/08 00:35:09;;;;;;;3.13;2.00;;;;;;;1.78;90.16;98374.56;4874983;29;20381;-83
2024/01/08 00:38:00;;;;;;;2.10;1.90;;;;;;;1.78;89.39;98383.22;4888816;29;20516;-85
2024/01/08 00:40:49;;;;;;;2.03;1.50;;;;;;;1.78;89.73;98388.44;4889176;29;20070;-83
2024/01/08 00:43:36;;;;;;;1.65;1.40;;;;;;;1.75;89.65;98391.47;4888635;29;20047;-87
2024/01/08 00:46:24;;;;;;;1.40;1.27;;;;;;;1.71;90.32;98411.19;4887880;29;20396;-84
2024/01/08 00:49:10;;;;;;;1.77;1.27;;;;;;;1.68;89.67;98405.53;4901227;29;20047;-84
2024/01/08 00:51:57;;;;;;;2.35;1.52;;;;;;;1.69;90.32;98405.31;4888198;29;20106;-84
2024/01/08 00:54:52;;;;;;;2.95;2.30;;;;;;;1.70;89.51;98414.81;4889169;29;20094;-84
2024/01/08 00:57:44;;;;;;;1.88;1.73;;;;;;;1.68;89.41;98416.00;4888265;29;20046;-84
2024/01/08 01:00:43;;;;;;;1.50;1.40;;;;;;;1.63;89.11;98421.84;4888073;29;20491;-85
2024/01/08 01:04:05;;;;;;;5.25;2.53;;;;;;;1.59;89.00;98428.44;4897181;29;20055;-83
2024/01/08 01:06:51;;;;;;;2.33;1.88;;;;;;;1.57;88.93;98433.88;4889255;29;20043;-86
2024/01/08 01:09:40;;;;;;;1.70;1.42;;;;;;;1.56;89.16;98434.88;4888658;29;20453;-86
2024/01/08 01:12:27;;;;;;;1.33;1.23;;;;;;;1.58;88.98;98437.31;4888880;29;20496;-84
2024/01/08 01:15:13;;;;;;;1.63;1.42;;;;;;;1.55;88.91;98442.91;4887472;29;20054;-84
2024/01/08 01:18:00;;;;;;;1.30;1.20;;;;;;;1.51;88.50;98439.06;4887155;29;20051;-83
2024/01/08 01:20:47;;;;;;;1.27;1.17;;;;;;;1.44;89.10;98451.28;4909857;29;20384;-83
2024/01/08 01:23:33;;;;;;;1.25;1.15;;;;;;;1.40;89.13;98450.88;4900853;29;20066;-82
2024/01/08 01:26:20;;;;;;;2.10;1.65;;;;;;;1.42;89.76;98455.94;4892788;29;20062;-82
2024/01/08 01:29:06;;;;;;;1.13;0.98;;;;;;;1.41;89.60;98456.91;4890718;29;20058;-83
2024/01/08 01:31:53;;;;;;;2.65;1.90;;;;;;;1.38;89.87;98456.31;4895701;29;20063;-82
2024/01/08 01:34:40;;;;;;;2.08;1.58;;;;;;;1.36;89.83;98455.66;4887718;29;20484;-82
2024/01/08 01:37:31;;;;;;;1.13;1.02;;;;;;;1.32;90.09;98454.44;4887392;29;20377;-86
2024/01/08 01:40:18;;;;;;;3.03;2.30;;;;;;;1.36;90.04;98453.06;4887431;29;20038;-85
2024/01/08 01:43:21;;;;;;;1.70;1.60;;;;;;;1.35;90.44;98454.06;4888431;29;20066;-84
2024/01/08 01:46:36;;;;;;;1.27;1.17;;;;;;;1.30;90.15;98453.81;4887142;29;20056;-82
2024/01/08 01:49:23;;;;;;;1.67;1.30;;;;;;;1.28;90.01;98463.66;4877740;29;20063;-82
2024/01/08 01:52:10;;;;;;;1.58;1.48;;;;;;;1.27;89.41;98462.03;4886242;29;20390;-84
2024/01/08 01:54:56;;;;;;;2.10;1.48;;;;;;;1.28;89.75;98473.31;4886840;29;20086;-84
2024/01/08 01:57:43;;;;;;;1.55;1.33;;;;;;;1.25;89.24;98463.22;4900568;29;20051;-84
2024/01/08 02:00:29;;;;;;;1.33;1.23;;;;;;;1.26;88.85;98473.50;4886269;29;20487;-85
2024/01/08 02:03:16;;;;;;;1.95;1.50;;;;;;;1.26;89.11;98483.19;4900635;29;20070;-83
2024/01/08 02:06:07;;;;;;;2.55;1.90;;;;;;;1.26;89.00;98483.97;4887151;29;20063;-84
2024/01/08 02:08:53;;;;;;;2.55;1.70;;;;;;;1.27;88.16;98493.44;4885541;29;20548;-84
2024/01/08 02:11:40;;;;;;;3.30;1.98;;;;;;;1.29;88.39;98495.91;4886420;29;20067;-84
2024/01/08 02:14:26;;;;;;;1.48;1.23;;;;;;;1.29;88.33;98498.50;4886882;29;20047;-83
2024/01/08 02:17:13;;;;;;;2.35;1.30;;;;;;;1.25;87.99;98492.81;4886355;29;20059;-83
2024/01/08 02:19:59;;;;;;;1.70;1.40;;;;;;;1.22;87.98;98497.63;4886157;29;20047;-85
2024/01/08 02:22:46;;;;;;;2.45;1.90;;;;;;;1.22;88.56;98501.03;4886296;29;20047;-84
2024/01/08 02:25:36;;;;;;;1.70;1.50;;;;;;;1.16;88.19;98496.59;4885428;29;20043;-84
2024/01/08 02:28:48;;;;;;;1.50;1.40;;;;;;;1.10;88.31;98503.38;4885233;29;20516;-85
2024/01/08 02:31:35;;;;;;;2.30;1.45;;;;;;;1.02;88.12;98507.91;4875820;29;20484;-84
2024/01/08 02:34:25;;;;;;;1.30;1.20;;;;;;;0.90;88.58;98499.72;4873197;29;20051;-83
2024/01/08 02:37:18;;;;;;;1.50;1.30;;;;;;;0.90;89.42;98516.22;4886950;29;20042;-83
2024/01/08 02:40:06;;;;;;;1.38;1.27;;;;;;;0.87;89.51;98513.97;4886362;29;20047;-83
2024/01/08 02:42:52;;;;;;;2.28;1.88;;;;;;;0.91;89.08;98523.09;4886316;29;20472;-82
2024/01/08 02:45:39;;;;;;;1.83;1.70;;;;;;;0.82;89.78;98526.81;4898987;29;20395;-83
2024/01/08 02:48:25;;;;;;;2.08;1.50;;;;;;;0.79;89.90;98526.38;4899282;29;20055;-83
2024/01/08 02:51:12;;;;;;;2.10;1.90;;;;;;;0.77;90.27;98526.53;4885278;29;20047;-83
2024/01/08 02:54:01;;;;;;;2.50;1.80;;;;;;;0.82;89.18;98542.50;4886133;29;20059;-86
2024/01/08 02:56:48;;;;;;;5.05;1.85;;;;;;;0.77;90.26;98539.63;4885187;29;20397;-85
2024/01/08 02:59:34;;;;;;;2.33;1.77;;;;;;;0.71;89.34;98542.16;4896607;29;20047;-85
2024/01/08 03:02:24;;;;;;;2.20;1.88;;;;;;;0.77;89.31;98544.06;4885980;29;20516;-83
2024/01/08 03:05:10;;;;;;;1.17;1.15;;;;;;;0.65;90.14;98548.94;4900178;29;20476;-84
2024/01/08 03:08:00;;;;;;;2.38;2.08;;;;;;;0.73;89.84;98553.25;4898821;29;20051;-84
2024/01/08 03:10:49;;;;;;;2.63;2.05;;;;;;;0.75;90.30;98559.91;4887120;29;20070;-84
2024/01/08 03:14:26;;;;;;;;;;;;;;;;;;;;;
2024/01/08 03:17:45;;;;;;;3.10;2.47;;;;;;;0.63;90.92;98571.84;4901827;29;20390;-84
2024/01/08 03:20:34;;;;;;;1.55;1.45;;;;;;;0.63;89.79;98570.03;4907173;29;20498;-84
2024/01/08 03:23:24;;;;;;;1.58;1.20;;;;;;;0.60;89.74;98580.88;4889069;29;20389;-85
2024/01/08 03:26:13;;;;;;;2.00;1.50;;;;;;;0.54;89.14;98580.78;4876337;29;20063;-83
2024/01/08 03:28:59;;;;;;;2.17;1.83;;;;;;;0.49;88.72;98577.88;4885620;29;20059;-85
2024/01/08 03:31:49;;;;;;;1.40;1.30;;;;;;;0.43;89.46;98584.66;4880195;29;20481;-83
2024/01/08 03:34:36;;;;;;;1.88;1.42;;;;;;;0.44;89.18;98597.56;4885175;29;21033;-83
2024/01/08 03:37:23;;;;;;;1.80;1.60;;;;;;;0.40;89.81;98596.25;4884847;29;20043;-83
2024/01/08 03:40:10;;;;;;;2.22;1.55;;;;;;;0.39;89.56;98592.03;4885353;29;20481;-84
2024/01/08 03:42:56;;;;;;;2.15;1.85;;;;;;;0.40;89.11;98596.25;4885268;29;20058;-83
2024/01/08 03:45:43;;;;;;;3.05;2.22;;;;;;;0.43;89.18;98605.56;4884976;29;20503;-83
2024/01/08 03:48:29;;;;;;;2.97;2.40;;;;;;;0.45;89.02;98614.84;4885280;29;20082;-83
2024/01/08 03:51:17;;;;;;;2.60;2.40;;;;;;;0.47;89.80;98619.91;4897679;29;20484;-82
2024/01/08 03:54:03;;;;;;;1.50;1.40;;;;;;;0.39;89.00;98620.00;4885467;29;20390;-83
2024/01/08 03:56:53;;;;;;;2.25;1.80;;;;;;;0.35;88.88;98618.72;4885189;29;20051;-83
2024/01/08 03:59:41;;;;;;;2.17;1.88;;;;;;;0.32;88.92;98632.97;4878904;29;20058;-84
2024/01/08 04:02:27;;;;;;;2.42;1.85;;;;;;;0.36;88.67;98636.84;4888434;29;20382;-83
2024/01/08 04:05:14;;;;;;;2.60;2.35;;;;;;;0.28;88.44;98633.47;4889047;29;20051;-83
2024/01/08 04:08:00;;;;;;;2.70;1.90;;;;;;;0.26;88.54;98643.31;4889535;29;20043;-84
2024/01/08 04:11:18;;;;;;;2.10;1.90;;;;;;;0.15;87.38;98647.16;4890861;29;20394;-85
2024/01/08 04:14:14;;;;;;;2.92;2.05;;;;;;;0.11;87.53;98657.16;4891272;29;20239;-85
2024/01/08 04:17:10;;;;;;;1.77;1.63;;;;;;;0.06;88.22;98653.44;4891225;29;20496;-85
2024/01/08 04:19:56;;;;;;;3.08;2.25;;;;;;;-0.07;87.81;98654.03;4887476;29;20051;-85
2024/01/08 04:22:45;;;;;;;1.48;1.38;;;;;;;-0.12;88.34;98667.63;4885654;29;20039;-82
2024/01/08 04:25:50;;;;;;;2.63;2.28;;;;;;;-0.19;88.45;98658.84;4885937;29;20059;-85
2024/01/08 04:28:49;;;;;;;3.55;2.70;;;;;;;-0.28;88.66;98665.94;4873585;29;20051;-84
2024/01/08 04:31:53;;;;;;;3.30;2.40;;;;;;;-0.38;89.10;98674.97;4892097;29;20390;-85
2024/01/08 04:35:06;;;;;;;2.33;2.00;;;;;;;-0.38;90.16;98685.41;4877350;29;20040;-85
2024/01/08 04:37:53;;;;;;;4.00;2.15;;;;;;;-0.49;89.86;98692.66;4885050;29;20066;-84
2024/01/08 04:40:45;;;;;;;5.53;3.05;;;;;;;-0.55;90.08;98695.97;4878511;29;20482;-85
2024/01/08 04:43:41;;;;;;;2.65;2.30;;;;;;;-0.63;90.94;98698.59;4887532;29;20062;-82
2024/01/08 04:46:27;;;;;;;3.50;2.55;;;;;;;-0.68;90.84;98694.91;4887964;29;20397;-85
2024/01/08 04:49:14;;;;;;;2.40;2.20;;;;;;;-0.64;91.58;98707.41;4884416;29;20481;-84
2024/01/08 04:53:07;;;;;;;;;;;;;;;;;;;;;
2024/01/08 04:56:56;;;;;;;3.10;2.67;;;;;;;-0.71;90.75;98711.69;4854169;29;20064;-84
2024/01/08 04:59:49;;;;;;;3.35;2.90;;;;;;;-0.69;90.07;98722.75;4859879;29;20048;-83
2024/01/08 05:02:49;;;;;;;3.22;2.83;;;;;;;-0.68;90.91;98719.19;4889152;29;20051;-85
2024/01/08 05:05:55;;;;;;;3.22;2.20;;;;;;;-0.66;90.09;98726.84;4889372;29;20874;-84
2024/01/08 05:09:15;;;;;;;;;;;;;;;;;;;;;
2024/01/08 05:12:29;;;;;;;4.82;3.47;;;;;;;-0.60;89.88;98745.25;4907105;29;20054;-86
2024/01/08 05:15:19;;;;;;;5.28;3.47;;;;;;;-0.63;89.94;98750.78;4901507;29;20500;-83
2024/01/08 05:18:20;;;;;;;2.95;2.53;;;;;;;-0.59;89.79;98746.88;4892493;29;20042;-85
2024/01/08 05:21:28;;;;;;;;;;;;;;;;;;;;;
2024/01/08 05:24:26;;;;;;;7.40;3.78;;;;;;;-0.50;89.66;98758.09;4901325;29;20062;-84
2024/01/08 05:27:18;;;;;;;4.78;4.05;;;;;;;-0.51;89.34;98765.09;4888168;29;20054;-85
2024/01/08 05:30:16;;;;;;;6.82;4.40;;;;;;;-0.38;88.01;98769.78;4900197;29;20362;-84
2024/01/08 05:33:34;;;;;;;;;;;;;;;-0.34;87.62;98776.31;4902325;29;20074;-85
2024/01/08 05:36:40;;;;;;;6.15;4.38;;;;;;;-0.37;87.43;98773.22;4887686;29;19927;-86
2024/01/08 05:39:49;;;;;;;3.92;2.88;;;;;;;-0.32;85.96;98786.56;4887262;29;20042;-84
2024/01/08 05:42:54;;;;;;;;;;;;;;;;;;;;;
2024/01/08 05:46:41;;;;;;;3.08;2.42;;;;;;;-0.34;85.86;98799.00;4904669;29;20156;-83
2024/01/08 05:49:52;;;;;;;2.38;2.13;;;;;;;-0.37;85.88;98801.94;4885824;29;20389;-85
2024/01/08 05:53:06;;;;;;;5.65;3.90;;;;;;;-0.33;85.38;98788.38;4886544;29;20436;-84
2024/01/08 05:56:09;;;;;;;6.35;4.35;;;;;;;-0.32;86.97;98794.41;4885152;29;20063;-85
2024/01/08 05:59:20;;;;;;;6.03;4.53;;;;;;;-0.28;86.00;98811.38;4895666;29;20059;-84
2024/01/08 06:06:16;;;;;;;5.55;3.85;;;;;;;-0.44;86.07;98811.41;4878281;29;20074;-85
2024/01/08 06:09:03;;;;;;;5.43;3.97;;;;;;;-0.44;86.34;98819.25;4900975;29;20039;-85
2024/01/08 06:12:17;;;;;;;;;;;;;;;;;;;;;
2024/01/08 06:16:00;;;;;;;9.90;6.22;;;;;;;-0.39;87.78;98830.00;4868378;29;20040;-86
2024/01/08 06:22:39;;;;;;;34.75;16.92;;;;;;;-0.39;86.90;98837.84;4804639;29;20395;-85
2024/01/08 06:25:26;;;;;;;68.40;38.17;;;;;;;-0.34;86.81;98840.78;4847011;29;20048;-86
2024/01/08 06:28:15;;;;;;;27.38;14.98;;;;;;;-0.37;86.63;98848.94;4852798;29;20447;-85
2024/01/08 06:31:13;;;;;;;20.35;13.80;;;;;;;-0.43;86.88;98854.84;4849965;29;20485;-85
2024/01/08 06:34:00;;;;;;;15.23;11.65;;;;;;;-0.47;87.45;98849.94;4844925;29;20386;-85
2024/01/08 06:36:46;;;;;;;17.38;12.93;;;;;;;-0.43;87.94;98863.47;4851688;29;20032;-84
2024/01/08 06:39:34;;;;;;;162.85;102.47;;;;;;;-0.45;87.57;98854.19;4852572;29;20172;-86
2024/01/08 06:42:23;;;;;;;280.27;167.25;;;;;;;-0.47;87.07;98865.63;4852782;29;20040;-85
2024/01/08 06:45:09;;;;;;;180.40;107.30;;;;;;;-0.40;87.95;98865.75;4857777;29;20381;-83
2024/01/08 06:47:59;;;;;;;123.70;74.00;;;;;;;-0.41;88.23;98873.75;4884620;29;20032;-84
2024/01/08 06:50:57;;;;;;;196.23;118.97;;;;;;;-0.47;87.07;98876.06;4898298;29;20454;-85
2024/01/08 06:53:44;;;;;;;266.42;201.45;;;;;;;-0.44;87.72;98877.50;4907525;29;20393;-83
2024/01/08 06:56:29;;;;;;;55.97;34.30;;;;;;;-0.36;87.49;98885.31;4885287;29;20525;-83
2024/01/08 06:59:16;;;;;;;18.17;13.25;;;;;;;-0.34;87.83;98891.19;4885861;29;20051;-82
2024/01/08 07:02:02;;;;;;;15.30;8.68;;;;;;;-0.26;87.41;98892.94;4882147;29;20043;-84
2024/01/08 07:04:48;;;;;;;52.97;27.25;;;;;;;-0.18;87.06;98892.13;4898663;29;20381;-84
2024/01/08 07:07:35;;;;;;;8.35;6.07;;;;;;;-0.37;87.07;98899.38;4892873;29;20482;-83
2024/01/08 07:10:21;;;;;;;4.97;4.22;;;;;;;-0.45;88.00;98904.59;4894124;29;20043;-83
2024/01/08 07:13:07;;;;;;;15.20;10.75;;;;;;;-0.41;88.09;98910.28;4892585;29;20524;-84
2024/01/08 07:15:52;;;;;;;8.80;5.93;;;;;;;-0.39;87.83;98916.16;4895069;29;20048;-84
2024/01/08 07:18:38;;;;;;;10.50;6.82;;;;;;;-0.43;88.04;98910.47;4889137;29;20480;-84
2024/01/08 07:21:24;;;;;;;156.05;83.35;;;;;;;-0.35;87.86;98922.69;4885935;29;20389;-83
2024/01/08 07:24:10;;;;;;;83.32;49.60;;;;;;;-0.37;87.87;98924.66;4878958;29;20497;-84
2024/01/08 07:26:57;;;;;;;57.03;35.78;;;;;;;-0.44;87.97;98928.91;4897881;29;20377;-83
2024/01/08 07:29:42;;;;;;;28.17;17.77;;;;;;;-0.39;87.44;98930.03;4878984;29;20461;-84
2024/01/08 07:32:28;;;;;;;12.27;9.20;;;;;;;-0.30;86.38;98938.69;4879018;29;20051;-83
2024/01/08 07:35:14;;;;;;;12.77;8.15;;;;;;;-0.27;86.50;98940.94;4909921;29;20059;-81
2024/01/08 07:38:00;;;;;;;13.35;7.82;;;;;;;-0.29;86.04;98937.69;4904693;29;20051;-83
2024/01/08 07:40:47;;;;;;;8.38;6.85;;;;;;;-0.38;85.77;98946.50;4881135;29;20063;-84
2024/01/08 07:43:34;;;;;;;10.20;6.47;;;;;;;-0.43;85.73;98946.22;4878879;29;20508;-86
2024/01/08 07:46:20;;;;;;;9.60;6.38;;;;;;;-0.45;85.85;98956.00;4883481;29;20503;-84
2024/01/08 07:49:06;;;;;;;10.43;7.07;;;;;;;-0.46;85.72;98952.56;4895483;29;20500;-84
2024/01/08 07:51:51;;;;;;;14.50;8.23;;;;;;;-0.38;85.76;98957.75;4884157;29;20525;-84
2024/01/08 07:54:37;;;;;;;14.63;8.02;;;;;;;-0.36;85.88;98968.88;4882811;29;20481;-84
2024/01/08 07:57:22;;;;;;;7.90;4.82;;;;;;;-0.47;85.41;98964.81;4897149;29;20055;-83
2024/01/08 08:00:11;;;;;;;10.68;6.93;;;;;;;-0.34;86.05;98973.94;4884314;29;20536;-84
2024/01/08 08:02:56;;;;;;;7.90;5.57;;;;;;;-0.49;85.23;98968.56;4883450;29;20047;-85
2024/01/08 08:05:42;;;;;;;13.65;8.25;;;;;;;-0.47;86.00;98972.66;4877541;29;20129;-83
2024/01/08 08:08:28;;;;;;;9.68;6.13;;;;;;;-0.52;85.51;98974.94;4887306;29;20385;-84
2024/01/08 08:11:14;;;;;;;16.35;10.13;;;;;;;-0.38;85.91;98977.84;4887619;29;20064;-83
2024/01/08 08:14:00;;;;;;;11.57;6.75;;;;;;;-0.39;85.87;98986.66;4888532;29;20361;-84
2024/01/08 08:16:46;;;;;;;13.70;8.70;;;;;;;-0.36;86.28;98994.19;4896466;29;20074;-84
2024/01/08 08:19:32;;;;;;;12.52;6.18;;;;;;;-0.47;86.18;98996.16;4897900;29;20047;-83
2024/01/08 08:22:19;;;;;;;10.52;5.57;;;;;;;-0.54;85.25;98994.34;4888429;29;20046;-83
2024/01/08 08:25:06;;;;;;;7.13;4.70;;;;;;;-0.58;85.67;98999.06;4887876;29;20046;-85
2024/01/08 08:27:52;;;;;;;11.20;6.78;;;;;;;-0.44;86.00;99015.88;4889820;29;20472;-85
2024/01/08 08:30:39;;;;;;;9.60;6.03;;;;;;;-0.53;85.09;99017.69;4888614;29;20067;-84
2024/01/08 08:33:25;;;;;;;9.68;7.20;;;;;;;-0.48;85.16;99017.19;4891635;29;20489;-86
2024/01/08 08:36:12;;;;;;;6.85;5.47;;;;;;;-0.49;84.95;99028.63;4890912;29;20496;-84
2024/01/08 08:38:59;;;;;;;10.48;6.93;;;;;;;-0.37;85.52;99032.53;4893668;29;20043;-85
2024/01/08 08:41:45;;;;;;;11.48;6.72;;;;;;;-0.36;84.87;99041.19;4891610;29;20484;-80
2024/01/08 08:44:30;;;;;;;20.17;11.82;;;;;;;-0.28;84.56;99035.97;4905834;29;20528;-82
2024/01/08 08:47:16;;;;;;;17.02;8.05;;;;;;;-0.29;84.27;99029.09;4892927;29;20385;-84
2024/01/08 08:50:02;;;;;;;17.05;9.38;;;;;;;-0.24;84.45;99037.25;4912254;29;20488;-82
2024/01/08 08:52:48;;;;;;;35.00;17.70;;;;;;;-0.18;84.71;99043.63;4896764;29;20417;-83
2024/01/08 08:55:33;;;;;;;10.27;7.47;;;;;;;-0.15;83.78;99040.69;4902634;29;20040;-84
2024/01/08 08:58:20;;;;;;;23.05;14.35;;;;;;;-0.03;84.59;99048.00;4890556;29;20051;-83
2024/01/08 09:01:06;;;;;;;13.85;9.52;;;;;;;0.09;84.35;99042.41;4891734;29;20052;-82
2024/01/08 09:03:54;;;;;;;24.83;15.30;;;;;;;0.21;84.07;99046.31;4889652;29;20043;-84
2024/01/08 09:06:40;;;;;;;18.95;10.75;;;;;;;0.06;83.94;99056.63;4878125;29;20147;-82
2024/01/08 09:09:25;;;;;;;19.35;11.10;;;;;;;0.13;83.10;99059.41;4904482;29;20059;-82
2024/01/08 09:12:11;;;;;;;13.25;9.00;;;;;;;0.20;83.23;99055.16;4898185;29;20071;-84
2024/01/08 09:14:56;;;;;;;18.02;11.95;;;;;;;0.46;82.90;99058.31;4894747;29;20473;-84
2024/01/08 09:17:42;;;;;;;10.85;7.72;;;;;;;-0.07;82.69;99067.59;4895242;29;20052;-82
2024/01/08 09:20:28;;;;;;;9.23;5.70;;;;;;;-0.06;83.55;99066.63;4906757;29;20050;-82
2024/01/08 09:23:13;;;;;;;15.05;9.25;;;;;;;0.12;83.42;99071.63;4891222;29;20051;-83
2024/01/08 09:25:59;;;;;;;11.65;8.45;;;;;;;-0.10;83.03;99061.88;4888556;29;20536;-82
2024/01/08 09:28:45;;;;;;;10.55;7.30;;;;;;;-0.13;82.61;99060.41;4897377;29;20063;-82
2024/01/08 09:31:30;;;;;;;11.55;8.02;;;;;;;-0.28;82.73;99068.09;4898467;29;20062;-83
2024/01/08 09:34:16;;;;;;;11.82;8.10;;;;;;;-0.18;83.16;99062.72;4897617;29;20064;-83
2024/01/08 09:37:01;;;;;;;13.65;8.95;;;;;;;-0.15;82.63;99059.78;4890610;29;20064;-83
2024/01/08 09:39:46;;;;;;;24.73;14.15;;;;;;;-0.15;83.24;99067.59;4889766;29;20464;-81
2024/01/08 09:42:33;;;;;;;22.13;12.95;;;;;;;-0.12;84.08;99069.09;4890277;29;20039;-83
2024/01/08 09:45:23;;;;;;;14.27;9.68;;;;;;;-0.04;83.47;99075.09;4890429;29;20036;-83
2024/01/08 09:48:10;;;;;;;14.52;8.15;;;;;;;-0.17;81.36;99068.75;4887607;29;20070;-83
2024/01/08 09:50:55;;;;;;;6.45;5.03;;;;;;;-0.35;81.79;99067.09;4902615;29;20402;-84
2024/01/08 09:53:42;;;;;;;17.42;10.73;;;;;;;-0.17;81.74;99077.41;4889549;29;20043;-82
2024/01/08 09:56:27;;;;;;;20.70;12.00;;;;;;;-0.11;82.33;99076.75;4890648;29;20043;-83
2024/01/08 09:59:13;;;;;;;16.58;8.90;;;;;;;-0.10;80.87;99075.75;4894022;29;20375;-84
2024/01/08 10:01:59;;;;;;;12.23;7.95;;;;;;;-0.28;81.08;99075.13;4913848;29;20063;-82
2024/01/08 10:04:44;;;;;;;8.63;5.47;;;;;;;-0.37;80.50;99073.50;4891899;29;20470;-85
2024/01/08 10:07:36;;;;;;;12.65;6.90;;;;;;;-0.37;80.56;99083.94;4901264;29;20093;-82
2024/01/08 10:10:24;;;;;;;6.50;4.43;;;;;;;-0.30;80.66;99080.50;4876122;29;20055;-81
2024/01/08 10:13:12;;;;;;;7.20;5.65;;;;;;;-0.27;79.99;99077.56;4894486;29;20137;-83
2024/01/08 10:15:58;;;;;;;11.77;8.02;;;;;;;-0.16;80.82;99081.63;4893452;29;20505;-82
2024/01/08 10:18:47;;;;;;;6.82;5.28;;;;;;;-0.12;80.62;99076.91;4894024;29;20051;-82
2024/01/08 10:21:32;;;;;;;13.13;8.27;;;;;;;-0.11;81.30;99092.41;4889797;29;20516;-83
2024/01/08 10:24:24;;;;;;;23.92;14.40;;;;;;;0.09;81.04;99086.84;4902643;29;20047;-81
2024/01/08 10:27:11;;;;;;;20.15;11.60;;;;;;;0.11;80.81;99093.53;4890578;29;20397;-83
2024/01/08 10:29:57;;;;;;;23.60;13.93;;;;;;;0.18;80.72;99089.28;4888378;29;20043;-82
2024/01/08 10:32:42;;;;;;;9.63;6.40;;;;;;;0.05;79.06;99091.59;4888228;29;20165;-82
2024/01/08 10:35:29;;;;;;;15.88;9.45;;;;;;;-0.11;79.30;99100.25;4902906;29;20477;-81
2024/01/08 10:38:15;;;;;;;9.63;6.85;;;;;;;-0.16;80.32;99097.31;4902406;29;20420;-81
2024/01/08 10:41:01;;;;;;;16.80;11.15;;;;;;;0.02;80.52;99096.31;4888643;29;20067;-83
2024/01/08 10:43:46;;;;;;;15.43;9.63;;;;;;;-0.01;80.24;99094.84;4899840;29;20055;-82
2024/01/08 10:46:40;;;;;;;19.15;12.45;;;;;;;0.00;81.45;99088.66;4887453;29;20398;-83
2024/01/08 10:49:32;;;;;;;13.93;9.38;;;;;;;-0.04;80.75;99089.97;4896027;29;20412;-82
2024/01/08 10:52:25;;;;;;;24.02;12.50;;;;;;;0.03;81.08;99090.09;4876273;29;20071;-83
2024/01/08 10:55:13;;;;;;;9.20;6.35;;;;;;;-0.19;79.78;99102.03;4888781;29;20063;-82
2024/01/08 10:58:04;;;;;;;16.88;11.05;;;;;;;-0.13;80.35;99096.16;4900541;29;20380;-83
2024/01/08 11:00:52;;;;;;;21.08;11.13;;;;;;;-0.17;79.99;99090.47;4884895;29;20047;-84
2024/01/08 11:03:37;;;;;;;25.27;13.15;;;;;;;0.04;80.60;99103.03;4889165;29;20040;-85
2024/01/08 11:10:07;;;;;;;14.23;6.68;;;;;;;-0.08;78.39;99092.09;4915541;29;20497;-86
2024/01/08 11:12:56;;;;;;;9.55;5.90;;;;;;;0.11;77.87;99093.53;4894361;29;20067;-82
2024/01/08 11:15:47;;;;;;;20.02;10.18;;;;;;;0.03;79.06;99097.94;4892581;29;20056;-82
2024/01/08 11:18:32;;;;;;;11.02;5.75;;;;;;;-0.19;77.72;99096.81;4882769;29;20050;-82
2024/01/08 11:21:23;;;;;;;13.93;7.43;;;;;;;-0.27;78.49;99095.84;4886649;29;20382;-83
2024/01/08 11:24:09;;;;;;;18.90;11.57;;;;;;;-0.23;78.17;99098.94;4895651;29;20497;-82
2024/01/08 11:26:55;;;;;;;13.48;8.68;;;;;;;-0.35;75.56;99101.06;4888480;29;20385;-81
2024/01/08 11:29:40;;;;;;;9.07;5.57;;;;;;;-0.35;76.55;99103.66;4888358;29;20480;-81
2024/01/08 11:32:51;;;;;;;19.92;11.75;;;;;;;-0.33;76.87;99103.53;4881863;29;20046;-82
2024/01/08 11:35:43;;;;;;;12.45;5.28;;;;;;;-0.34;77.08;99109.72;4878543;29;20047;-81
2024/01/08 11:38:30;;;;;;;15.00;8.88;;;;;;;-0.37;78.04;99115.28;4888338;29;20059;-81
2024/01/08 11:41:15;;;;;;;20.02;12.93;;;;;;;-0.06;78.30;99111.03;4881561;29;20471;-81
2024/01/08 11:44:03;;;;;;;21.42;13.30;;;;;;;-0.12;78.18;99100.44;4887999;29;20036;-83
2024/01/08 11:46:49;;;;;;;21.60;13.05;;;;;;;-0.17;78.39;99105.31;4886282;29;20168;-82
2024/01/08 11:49:34;;;;;;;12.70;8.43;;;;;;;-0.32;76.99;99103.34;4886595;29;20475;-83
2024/01/08 11:52:21;;;;;;;28.23;16.75;;;;;;;-0.09;77.90;99100.09;4889227;29;20389;-83
2024/01/08 11:55:08;;;;;;;72.95;32.90;;;;;;;0.02;76.20;99104.16;4889027;29;20469;-82
2024/01/08 11:57:54;;;;;;;16.20;9.52;;;;;;;-0.16;75.70;99097.31;4876489;29;20489;-85
2024/01/08 12:00:41;;;;;;;17.70;10.73;;;;;;;-0.26;76.79;99112.31;4901174;29;20094;-82
2024/01/08 12:03:28;;;;;;;9.27;6.53;;;;;;;-0.24;77.00;99105.16;4891655;29;20465;-84
2024/01/08 12:06:17;;;;;;;35.30;16.85;;;;;;;-0.18;76.81;99103.69;4892793;29;20054;-85
2024/01/08 12:09:03;;;;;;;19.95;11.85;;;;;;;-0.17;77.15;99100.91;4891162;29;20051;-82
2024/01/08 12:12:08;;;;;;;13.90;8.55;;;;;;;-0.31;77.21;99098.97;4892144;29;20418;-85
2024/01/08 12:14:55;;;;;;;17.10;9.95;;;;;;;-0.19;77.80;99108.06;4900682;29;20074;-83
2024/01/08 12:17:41;;;;;;;14.88;9.70;;;;;;;-0.19;78.10;99115.09;4897221;29;20358;-82
2024/01/08 12:20:27;;;;;;;18.13;8.82;;;;;;;-0.22;77.19;99104.97;4891569;29;20050;-83
2024/01/08 12:23:14;;;;;;;20.83;9.60;;;;;;;-0.14;76.58;99099.75;4898156;29;20063;-82
2024/01/08 12:26:00;;;;;;;26.33;16.35;;;;;;;-0.13;77.09;99112.66;4889918;29;20046;-83
2024/01/08 12:28:47;;;;;;;16.05;8.88;;;;;;;-0.14;77.33;99118.06;4878222;29;20036;-83
2024/01/08 12:31:34;;;;;;;18.98;11.18;;;;;;;-0.09;77.22;99119.19;4901535;29;20050;-84
2024/01/08 12:34:20;;;;;;;19.65;10.00;;;;;;;-0.11;76.08;99117.72;4895328;29;20474;-83
2024/01/08 12:37:13;;;;;;;15.80;8.70;;;;;;;-0.08;77.41;99115.59;4891931;29;20039;-83
2024/01/08 12:40:04;;;;;;;8.55;5.97;;;;;;;-0.10;75.88;99116.72;4890820;29;20398;-83
2024/01/08 12:42:50;;;;;;;36.88;13.40;;;;;;;-0.13;76.92;99123.09;4904895;29;20473;-82
2024/01/08 12:45:42;;;;;;;16.70;8.07;;;;;;;-0.14;75.38;99123.28;4904134;29;20400;-82
2024/01/08 12:48:29;;;;;;;19.67;11.25;;;;;;;-0.16;74.83;99128.66;4892121;29;20358;-81
2024/01/08 12:51:18;;;;;;;16.65;10.48;;;;;;;-0.07;74.38;99130.28;4892331;29;20484;-83
2024/01/08 12:54:05;;;;;;;14.48;8.45;;;;;;;-0.18;73.65;99135.03;4891845;29;20382;-83
2024/01/08 12:56:52;;;;;;;14.32;9.27;;;;;;;-0.28;72.87;99128.19;4888724;29;20082;-84
2024/01/08 12:59:54;;;;;;;15.18;7.75;;;;;;;-0.29;73.04;99134.34;4894258;29;20067;-82
2024/01/08 13:02:41;;;;;;;11.63;6.90;;;;;;;-0.35;73.38;99139.41;4895956;29;20412;-83
2024/01/08 13:05:27;;;;;;;15.95;8.98;;;;;;;-0.32;73.27;99150.34;4899982;29;20070;-83
2024/01/08 13:08:15;;;;;;;23.95;11.15;;;;;;;-0.25;73.55;99153.97;4904568;29;20415;-83
2024/01/08 13:11:02;;;;;;;21.77;13.88;;;;;;;-0.20;72.95;99155.28;4885055;29;20047;-82
2024/01/08 13:13:50;;;;;;;26.80;14.50;;;;;;;-0.21;73.45;99158.88;4893392;29;20070;-84
2024/01/08 13:16:36;;;;;;;27.38;14.75;;;;;;;-0.28;74.01;99156.91;4894137;29;20382;-82
2024/01/08 13:19:23;;;;;;;23.48;11.95;;;;;;;-0.27;73.18;99170.78;4891232;29;20389;-85
2024/01/08 13:22:11;;;;;;;86.85;38.25;;;;;;;-0.26;73.77;99177.63;4887391;29;20048;-84
2024/01/08 13:24:59;;;;;;;14.10;7.05;;;;;;;-0.38;72.62;99182.31;4903686;29;20457;-85
2024/01/08 13:27:47;;;;;;;52.40;23.10;;;;;;;-0.26;75.12;99190.69;4886109;29;20102;-83
2024/01/08 13:30:33;;;;;;;24.88;11.02;;;;;;;-0.38;74.21;99189.34;4887879;29;20450;-81
2024/01/08 13:33:20;;;;;;;12.27;8.13;;;;;;;-0.50;73.96;99191.47;4890960;29;20511;-84
2024/01/08 13:36:07;;;;;;;56.95;32.28;;;;;;;-0.48;74.18;99202.53;4890313;29;20426;-82
2024/01/08 13:38:53;;;;;;;21.85;10.80;;;;;;;-0.63;74.61;99202.31;4892302;29;20043;-84
2024/01/08 13:41:41;;;;;;;13.88;9.13;;;;;;;-0.75;75.40;99209.66;4890262;29;20393;-82